createdAt,value
2017-12-20T00:01:22.035Z,98935.12
2017-12-20T00:03:49.776Z,98919.55
2017-12-20T00:06:17.293Z,98923.74
2017-12-20T00:08:44.814Z,98921.69
2017-12-20T00:11:12.578Z,98928.44
2017-12-20T00:13:40.146Z,98928.56
2017-12-20T00:16:07.656Z,98927.68
2017-12-20T00:18:35.564Z,98930.12
2017-12-20T00:21:03.346Z,98923.78
2017-12-20T00:23:30.868Z,98924.75
2017-12-20T00:25:58.433Z,98918.39
2017-12-20T00:28:25.944Z,98925.22
2017-12-20T00:30:53.454Z,98914.83
2017-12-20T00:33:21.212Z,98913.59
2017-12-20T00:35:48.729Z,98915.30
2017-12-20T00:38:16.241Z,98908.83
2017-12-20T00:40:43.899Z,98897.73
2017-12-20T00:43:11.429Z,98888.45
2017-12-20T00:45:38.941Z,98894.31
2017-12-20T00:48:06.687Z,98891.84
2017-12-20T00:50:34.243Z,98891.02
2017-12-20T00:53:01.747Z,98891.22
2017-12-20T00:55:29.769Z,98879.55
2017-12-20T00:57:57.334Z,98882.73
2017-12-20T01:00:24.898Z,98880.36
2017-12-20T01:02:52.831Z,98882.91
2017-12-20T01:05:20.620Z,98889.58
2017-12-20T01:07:48.181Z,98887.94
2017-12-20T01:10:15.718Z,98880.99
2017-12-20T01:12:43.226Z,98877.21
2017-12-20T01:15:10.977Z,98878.16
2017-12-20T01:17:38.509Z,98879.27
2017-12-20T01:20:06.045Z,98878.48
2017-12-20T01:22:33.859Z,98878.06
2017-12-20T01:25:01.573Z,98880.60
2017-12-20T01:27:29.387Z,98883.13
2017-12-20T01:29:57.275Z,98879.31
2017-12-20T01:32:25.125Z,98883.57
2017-12-20T01:34:52.872Z,98895.64
2017-12-20T01:37:20.376Z,98899.60
2017-12-20T01:39:48.204Z,98905.51
2017-12-20T01:42:15.966Z,98900.56
2017-12-20T01:44:43.839Z,98902.75
2017-12-20T01:47:11.943Z,98913.05
2017-12-20T01:49:40.882Z,98914.02
2017-12-20T01:52:08.852Z,98915.71
2017-12-20T01:54:36.638Z,98922.83
2017-12-20T01:57:04.398Z,98926.80
2017-12-20T01:59:31.902Z,98924.55
2017-12-20T02:01:59.473Z,98918.70
2017-12-20T02:04:27.038Z,98922.88
2017-12-20T02:06:54.755Z,98914.09
2017-12-20T02:09:23.005Z,98922.89
2017-12-20T02:11:50.780Z,98916.20
2017-12-20T02:14:18.640Z,98914.91
2017-12-20T02:16:46.636Z,98907.45
2017-12-20T02:19:14.249Z,98916.30
2017-12-20T02:21:42.509Z,98900.39
2017-12-20T02:24:10.721Z,98898.59
2017-12-20T02:26:38.589Z,98896.77
2017-12-20T02:29:06.560Z,98885.70
2017-12-20T02:31:34.602Z,98878.47
2017-12-20T02:34:02.286Z,98881.09
2017-12-20T02:36:30.193Z,98880.67
2017-12-20T02:38:57.800Z,98881.95
2017-12-20T02:41:25.403Z,98872.25
2017-12-20T02:43:53.372Z,98875.50
2017-12-20T02:46:21.225Z,98882.05
2017-12-20T02:48:49.190Z,98875.88
2017-12-20T02:51:16.722Z,98872.02
2017-12-20T02:53:44.588Z,98869.16
2017-12-20T02:56:12.094Z,98863.16
2017-12-20T02:58:39.605Z,98862.09
2017-12-20T03:01:07.163Z,98862.45
2017-12-20T03:03:34.674Z,98858.62
2017-12-20T03:06:02.185Z,98866.09
2017-12-20T03:08:29.913Z,98866.17
2017-12-20T03:10:57.425Z,98859.48
2017-12-20T03:13:24.941Z,98863.08
2017-12-20T03:15:52.622Z,98864.45
2017-12-20T03:18:20.174Z,98863.08
2017-12-20T03:20:47.681Z,98861.85
2017-12-20T03:23:15.229Z,98863.20
2017-12-20T03:25:42.754Z,98848.72
2017-12-20T03:28:10.263Z,98849.61
2017-12-20T03:30:37.834Z,98845.17
2017-12-20T03:33:05.352Z,98846.89
2017-12-20T03:35:32.861Z,98844.79
2017-12-20T03:38:00.754Z,98846.73
2017-12-20T03:40:28.321Z,98850.94
2017-12-20T03:42:55.861Z,98846.77
2017-12-20T03:45:23.739Z,98842.22
2017-12-20T03:47:51.246Z,98838.91
2017-12-20T03:50:18.776Z,98833.95
2017-12-20T03:52:46.622Z,98826.80
2017-12-20T03:55:14.197Z,98823.45
2017-12-20T03:57:41.747Z,98832.56
2017-12-20T04:00:09.510Z,98830.48
2017-12-20T04:02:37.023Z,98821.02
2017-12-20T04:05:04.529Z,98831.06
2017-12-20T04:07:32.461Z,98835.48
2017-12-20T04:09:59.977Z,98834.19
2017-12-20T04:12:27.486Z,98833.38
2017-12-20T04:14:55.064Z,98840.72
2017-12-20T04:17:22.577Z,98842.13
2017-12-20T04:19:50.093Z,98829.23
2017-12-20T04:22:17.917Z,98831.80
2017-12-20T04:24:45.438Z,98831.50
2017-12-20T04:27:12.958Z,98830.41
2017-12-20T04:29:40.624Z,98819.79
2017-12-20T04:32:08.136Z,98821.47
2017-12-20T04:34:35.650Z,98819.19
2017-12-20T04:37:03.610Z,98819.11
2017-12-20T04:39:31.116Z,98818.60
2017-12-20T04:42:01.706Z,98821.69
2017-12-20T04:44:29.542Z,98816.22
2017-12-20T04:46:57.049Z,98811.89
2017-12-20T04:49:24.557Z,98813.34
2017-12-20T04:51:52.099Z,98817.41
2017-12-20T04:54:19.607Z,98813.48
2017-12-20T04:56:47.151Z,98824.92
2017-12-20T04:59:14.702Z,98834.42
2017-12-20T05:01:42.372Z,98833.41
2017-12-20T05:04:09.931Z,98828.72
2017-12-20T05:06:37.493Z,98828.52
2017-12-20T05:09:04.997Z,98829.25
2017-12-20T05:11:32.515Z,98833.33
2017-12-20T05:14:00.372Z,98836.97
2017-12-20T05:16:28.525Z,98846.39
2017-12-20T05:18:56.033Z,98853.16
2017-12-20T05:21:23.613Z,98847.39
2017-12-20T05:23:51.125Z,98860.07
2017-12-20T05:26:18.685Z,98861.38
2017-12-20T05:28:46.529Z,98857.39
2017-12-20T05:31:14.046Z,98859.48
2017-12-20T05:33:41.566Z,98858.69
2017-12-20T05:36:09.326Z,98858.81
2017-12-20T05:38:36.887Z,98848.77
2017-12-20T05:41:04.445Z,98852.99
2017-12-20T05:43:32.253Z,98849.68
2017-12-20T05:45:59.781Z,98849.27
2017-12-20T05:48:27.327Z,98847.11
2017-12-20T05:50:55.246Z,98849.10
2017-12-20T05:53:22.750Z,98852.19
2017-12-20T05:55:50.259Z,98855.08
2017-12-20T05:58:17.974Z,98853.88
2017-12-20T06:00:45.532Z,98859.20
2017-12-20T06:03:13.040Z,98862.23
2017-12-20T06:05:41.526Z,98864.70
2017-12-20T06:08:09.037Z,98870.27
2017-12-20T06:10:37.001Z,98871.98
2017-12-20T06:13:04.760Z,98866.00
2017-12-20T06:15:32.322Z,98866.05
2017-12-20T06:17:59.826Z,98864.39
2017-12-20T06:20:27.643Z,98862.64
2017-12-20T06:22:55.348Z,98867.72
2017-12-20T06:25:22.877Z,98867.97
2017-12-20T06:27:50.731Z,98863.49
2017-12-20T06:30:18.241Z,98865.16
2017-12-20T06:32:45.754Z,98865.09
2017-12-20T06:35:13.713Z,98862.59
2017-12-20T06:37:41.397Z,98866.53
2017-12-20T06:40:08.935Z,98865.58
2017-12-20T06:42:36.673Z,98864.63
2017-12-20T06:45:04.178Z,98863.45
2017-12-20T06:47:31.714Z,98856.48
2017-12-20T06:49:59.478Z,98867.91
2017-12-20T06:52:26.987Z,98866.19
2017-12-20T06:54:54.497Z,98869.73
2017-12-20T06:57:22.237Z,98868.45
2017-12-20T06:59:49.751Z,98862.50
2017-12-20T07:02:17.266Z,98865.44
2017-12-20T07:04:45.242Z,98866.25
2017-12-20T07:07:12.754Z,98871.83
2017-12-20T07:09:40.279Z,98872.74
2017-12-20T07:12:07.855Z,98875.04
2017-12-20T07:14:35.390Z,98879.84
2017-12-20T07:17:02.937Z,98876.98
2017-12-20T07:19:31.950Z,98880.08
2017-12-20T07:21:59.510Z,98889.86
2017-12-20T07:24:27.047Z,98882.50
2017-12-20T07:26:54.707Z,98892.50
2017-12-20T07:29:22.213Z,98898.08
2017-12-20T07:31:49.733Z,98897.50
2017-12-20T07:34:18.642Z,98894.74
2017-12-20T07:36:46.193Z,98898.00
2017-12-20T07:39:13.731Z,98901.51
2017-12-20T07:44:31.607Z,98904.78
2017-12-20T07:46:59.129Z,98907.83
2017-12-20T07:49:26.644Z,98904.31
2017-12-20T07:51:54.259Z,98915.42
2017-12-20T07:54:21.765Z,98910.27
2017-12-20T07:56:49.277Z,98912.02
2017-12-20T07:59:17.124Z,98906.30
2017-12-20T08:01:44.628Z,98913.39
2017-12-20T08:04:12.214Z,98907.29
2017-12-20T08:06:40.107Z,98913.74
2017-12-20T08:09:07.613Z,98910.16
2017-12-20T08:11:35.161Z,98906.84
2017-12-20T08:14:02.857Z,98900.10
2017-12-20T08:16:30.370Z,98908.54
2017-12-20T08:18:57.955Z,98907.08
2017-12-20T08:21:25.692Z,98905.13
2017-12-20T08:23:53.245Z,98909.88
2017-12-20T08:26:20.745Z,98916.94
2017-12-20T08:28:48.285Z,98912.08
2017-12-20T08:31:15.810Z,98912.98
2017-12-20T08:33:43.324Z,98915.27
2017-12-20T08:36:10.865Z,98913.80
2017-12-20T08:38:38.396Z,98918.03
2017-12-20T08:41:05.902Z,98923.25
2017-12-20T08:43:33.813Z,98923.47
2017-12-20T08:46:01.311Z,98917.34
2017-12-20T08:48:28.821Z,98931.56
2017-12-20T08:50:56.408Z,98932.67
2017-12-20T08:53:23.955Z,98930.55
2017-12-20T08:55:51.456Z,98945.38
2017-12-20T08:58:18.999Z,98938.31
2017-12-20T09:00:46.529Z,98944.25
2017-12-20T09:03:14.045Z,98951.39
2017-12-20T09:05:41.591Z,98956.47
2017-12-20T09:08:09.104Z,98949.75
2017-12-20T09:10:36.610Z,98953.11
2017-12-20T09:13:04.332Z,98949.45
2017-12-20T09:15:31.840Z,98953.29
2017-12-20T09:17:59.351Z,98948.70
2017-12-20T09:20:27.105Z,98956.92
2017-12-20T09:22:54.609Z,98960.94
2017-12-20T09:25:22.122Z,98965.72
2017-12-20T09:27:49.678Z,98963.88
2017-12-20T09:30:17.234Z,98964.41
2017-12-20T09:32:44.746Z,98962.66
2017-12-20T09:35:12.459Z,98965.34
2017-12-20T09:37:39.971Z,98955.44
2017-12-20T09:40:07.485Z,98960.51
2017-12-20T09:42:35.025Z,98958.52
2017-12-20T09:45:02.534Z,98961.45
2017-12-20T09:47:30.057Z,98957.30
2017-12-20T09:49:57.608Z,98958.64
2017-12-20T09:52:25.126Z,98951.75
2017-12-20T09:54:52.638Z,98949.48
2017-12-20T09:57:20.205Z,98951.11
2017-12-20T09:59:47.741Z,98945.22
2017-12-20T10:02:15.303Z,98940.44
2017-12-20T10:04:42.912Z,98940.06
2017-12-20T10:07:10.433Z,98935.44
2017-12-20T10:12:10.706Z,98933.30
2017-12-20T10:14:38.214Z,98931.27
2017-12-20T10:17:05.713Z,98934.52
2017-12-20T10:19:33.250Z,98935.77
2017-12-20T10:22:01.200Z,98927.26
2017-12-20T10:24:28.702Z,98926.05
2017-12-20T10:26:56.525Z,98930.67
2017-12-20T10:29:24.083Z,98931.08
2017-12-20T10:31:51.589Z,98926.50
2017-12-20T10:34:19.150Z,98929.44
2017-12-20T10:36:46.655Z,98930.75
2017-12-20T10:39:14.157Z,98925.75
2017-12-20T10:41:41.876Z,98927.84
2017-12-20T10:44:09.374Z,98932.92
2017-12-20T10:46:36.893Z,98930.00
2017-12-20T10:49:04.556Z,98929.16
2017-12-20T10:51:32.060Z,98930.83
2017-12-20T10:53:59.570Z,98929.59
2017-12-20T10:56:27.206Z,98927.89
2017-12-20T10:58:54.710Z,98930.84
2017-12-20T11:01:22.214Z,98938.01
2017-12-20T11:03:50.113Z,98928.34
2017-12-20T11:06:17.637Z,98926.63
2017-12-20T11:08:45.133Z,98926.23
2017-12-20T11:11:12.893Z,98924.55
2017-12-20T11:13:40.393Z,98922.40
2017-12-20T11:16:07.921Z,98920.77
2017-12-20T11:18:35.468Z,98916.97
2017-12-20T11:21:02.966Z,98920.75
2017-12-20T11:23:30.483Z,98914.86
2017-12-20T11:25:58.335Z,98918.63
2017-12-20T11:28:25.838Z,98908.95
2017-12-20T11:30:53.370Z,98908.55
2017-12-20T11:33:20.901Z,98901.80
2017-12-20T11:35:48.417Z,98897.60
2017-12-20T11:38:15.918Z,98899.31
2017-12-20T11:40:44.422Z,98898.88
2017-12-20T11:43:12.391Z,98900.98
2017-12-20T11:45:39.893Z,98896.34
2017-12-20T11:48:07.581Z,98895.50
2017-12-20T11:50:35.081Z,98893.00
2017-12-20T11:53:02.626Z,98897.63
2017-12-20T11:55:30.195Z,98895.49
2017-12-20T11:57:57.744Z,98896.77
2017-12-20T12:00:25.304Z,98895.50
2017-12-20T12:02:52.854Z,98895.06
2017-12-20T12:05:20.357Z,98895.92
2017-12-20T12:07:47.862Z,98895.06
2017-12-20T12:10:15.457Z,98890.02
2017-12-20T12:12:42.970Z,98892.55
2017-12-20T12:15:10.465Z,98895.50
2017-12-20T12:17:38.113Z,98893.42
2017-12-20T12:20:05.618Z,98888.36
2017-12-20T12:22:33.132Z,98887.95
2017-12-20T12:25:00.996Z,98889.17
2017-12-20T12:27:28.498Z,98886.23
2017-12-20T12:29:56.503Z,98890.03
2017-12-20T12:32:24.034Z,98895.53
2017-12-20T12:34:51.542Z,98890.47
2017-12-20T12:37:19.041Z,98890.05
2017-12-20T12:39:46.760Z,98892.56
2017-12-20T12:42:14.258Z,98883.75
2017-12-20T12:44:41.759Z,98885.81
2017-12-20T12:47:09.435Z,98880.37
2017-12-20T12:49:36.951Z,98879.54
2017-12-20T12:52:04.460Z,98886.66
2017-12-20T12:54:32.319Z,98890.48
2017-12-20T12:56:59.842Z,98887.95
2017-12-20T12:59:27.395Z,98890.89
2017-12-20T13:01:55.407Z,98893.00
2017-12-20T13:04:22.905Z,98895.50
2017-12-20T13:06:50.410Z,98896.36
2017-12-20T13:09:17.982Z,98892.56
2017-12-20T13:11:45.485Z,98886.67
2017-12-20T13:14:12.996Z,98898.02
2017-12-20T13:16:40.760Z,98900.54
2017-12-20T13:19:08.253Z,98902.23
2017-12-20T13:21:35.776Z,98903.06
2017-12-20T13:24:03.540Z,98904.34
2017-12-20T13:26:31.045Z,98900.53
2017-12-20T13:28:58.553Z,98899.69
2017-12-20T13:31:26.114Z,98900.52
2017-12-20T13:33:53.674Z,98909.81
2017-12-20T13:36:21.179Z,98905.59
2017-12-20T13:38:48.894Z,98907.72
2017-12-20T13:41:16.406Z,98909.39
2017-12-20T13:43:43.922Z,98911.92
2017-12-20T13:46:11.646Z,98908.56
2017-12-20T13:48:39.154Z,98912.34
2017-12-20T13:51:06.718Z,98911.94
2017-12-20T13:53:34.282Z,98920.73
2017-12-20T13:56:01.785Z,98914.83
2017-12-20T13:58:29.409Z,98915.65
2017-12-20T14:00:57.096Z,98912.29
2017-12-20T14:03:24.606Z,98916.11
2017-12-20T14:05:52.117Z,98913.55
2017-12-20T14:08:19.705Z,98921.99
2017-12-20T14:10:47.366Z,98914.00
2017-12-20T14:13:15.134Z,98915.30
2017-12-20T14:15:43.206Z,98915.68
2017-12-20T14:18:10.806Z,98916.56
2017-12-20T14:20:38.361Z,98908.97
2017-12-20T14:23:06.084Z,98906.86
2017-12-20T14:25:33.642Z,98911.44
2017-12-20T14:28:01.202Z,98917.75
2017-12-20T14:30:29.068Z,98919.90
2017-12-20T14:32:56.574Z,98917.81
2017-12-20T14:35:24.074Z,98927.01
2017-12-20T14:37:51.847Z,98924.52
2017-12-20T14:40:19.350Z,98924.47
2017-12-20T14:42:46.863Z,98932.04
2017-12-20T14:45:14.624Z,98932.05
2017-12-20T14:47:42.098Z,98934.56
2017-12-20T14:50:09.607Z,98930.39
2017-12-20T14:52:37.386Z,98927.02
2017-12-20T14:55:04.893Z,98925.73
2017-12-20T14:57:32.482Z,98930.80
2017-12-20T15:00:00.072Z,98936.66
2017-12-20T15:02:27.756Z,98934.16
2017-12-20T15:04:55.612Z,98930.30
2017-12-20T15:07:23.409Z,98924.39
2017-12-20T15:09:51.036Z,98926.94
2017-12-20T15:12:18.582Z,98931.35
2017-12-20T15:14:46.309Z,98929.30
2017-12-20T15:17:13.797Z,98932.74
2017-12-20T15:22:09.241Z,98945.67
2017-12-20T15:24:36.822Z,98939.02
2017-12-20T15:27:04.337Z,98935.23
2017-12-20T15:29:32.228Z,98936.52
2017-12-20T15:31:59.785Z,98940.30
2017-12-20T15:34:27.309Z,98942.75
2017-12-20T15:36:54.976Z,98947.02
2017-12-20T15:39:22.497Z,98947.86
2017-12-20T15:41:50.019Z,98939.00
2017-12-20T15:44:18.093Z,98940.70
2017-12-20T15:46:45.602Z,98934.67
2017-12-20T15:49:13.107Z,98932.81
2017-12-20T15:51:40.771Z,98933.02
2017-12-20T15:54:08.278Z,98925.06
2017-12-20T15:56:35.827Z,98927.63
2017-12-20T15:59:03.650Z,98926.75
2017-12-20T16:01:31.416Z,98940.53
2017-12-20T16:03:59.179Z,98932.63
2017-12-20T16:06:26.793Z,98940.19
2017-12-20T16:08:55.730Z,98934.66
2017-12-20T16:11:23.233Z,98940.57
2017-12-20T16:13:51.478Z,98937.70
2017-12-20T16:16:19.125Z,98945.28
2017-12-20T16:18:46.696Z,98953.70
2017-12-20T16:21:14.653Z,98947.39
2017-12-20T16:23:42.174Z,98949.05
2017-12-20T16:26:10.282Z,98943.52
2017-12-20T16:28:38.456Z,98943.59
2017-12-20T16:31:06.529Z,98946.57
2017-12-20T16:33:34.597Z,98953.30
2017-12-20T16:36:03.400Z,98952.84
2017-12-20T16:38:31.355Z,98957.02
2017-12-20T16:40:59.222Z,98967.92
2017-12-20T16:43:27.573Z,98972.11
2017-12-20T16:45:55.465Z,98980.85
2017-12-20T16:48:24.266Z,98991.78
2017-12-20T16:50:52.336Z,98988.36
2017-12-20T16:53:31.990Z,98989.25
2017-12-20T16:55:59.940Z,98997.66
2017-12-20T16:58:27.803Z,98999.28
2017-12-20T17:00:55.577Z,98996.01
2017-12-20T17:03:24.172Z,98996.87
2017-12-20T17:05:51.941Z,99000.17
2017-12-20T17:08:19.779Z,99010.30
2017-12-20T17:10:47.853Z,99007.77
2017-12-20T17:13:15.615Z,99009.35
2017-12-20T17:15:43.397Z,99012.42
2017-12-20T17:18:11.099Z,99010.36
2017-12-20T17:20:38.922Z,99003.60
2017-12-20T17:23:06.792Z,99010.34
2017-12-20T17:25:34.637Z,99013.70
2017-12-20T17:28:02.403Z,99011.22
2017-12-20T17:30:30.166Z,99013.23
2017-12-20T17:32:58.135Z,99009.08
2017-12-20T17:35:25.908Z,99012.35
2017-12-20T17:37:53.765Z,99011.63
2017-12-20T17:40:21.948Z,99012.02
2017-12-20T17:42:49.896Z,99007.77
2017-12-20T17:45:17.534Z,99005.73
2017-12-20T17:47:47.174Z,99017.95
2017-12-20T17:50:15.059Z,99023.80
2017-12-20T17:52:42.818Z,99015.02
2017-12-20T17:55:11.125Z,99015.00
2017-12-20T17:57:38.949Z,99028.48
2017-12-20T18:00:12.048Z,99034.34
2017-12-20T18:02:39.781Z,99039.41
2017-12-20T18:05:08.145Z,99040.67
2017-12-20T18:07:36.008Z,99039.00
2017-12-20T18:10:03.713Z,99038.17
2017-12-20T18:12:31.676Z,99033.49
2017-12-20T18:14:59.646Z,99032.52
2017-12-20T18:17:27.307Z,99029.59
2017-12-20T18:19:55.071Z,99022.30
2017-12-20T18:22:22.956Z,99019.80
2017-12-20T18:24:50.756Z,99022.69
2017-12-20T18:27:18.582Z,99016.97
2017-12-20T18:29:46.447Z,99022.39
2017-12-20T18:32:14.099Z,99029.22
2017-12-20T18:34:42.009Z,99032.50
2017-12-20T18:37:09.932Z,99028.80
2017-12-20T18:39:38.908Z,99016.94
2017-12-20T18:42:08.009Z,99020.67
2017-12-20T18:44:36.921Z,99028.32
2017-12-20T18:47:05.081Z,99020.58
2017-12-20T18:49:33.020Z,99024.08
2017-12-20T18:52:02.456Z,99020.25
2017-12-20T18:54:30.526Z,99024.87
2017-12-20T18:56:58.408Z,99022.64
2017-12-20T18:59:26.361Z,99021.10
2017-12-20T19:01:54.226Z,99021.89
2017-12-20T19:04:22.114Z,99024.87
2017-12-20T19:06:50.340Z,99020.61
2017-12-20T19:09:20.285Z,99018.53
2017-12-20T19:11:48.591Z,99021.86
2017-12-20T19:14:16.665Z,99024.05
2017-12-20T19:16:45.213Z,99025.30
2017-12-20T19:19:13.000Z,99028.12
2017-12-20T19:21:41.073Z,99030.11
2017-12-20T19:24:09.016Z,99034.86
2017-12-20T19:26:36.883Z,99033.73
2017-12-20T19:29:05.074Z,99026.50
2017-12-20T19:31:32.877Z,99029.98
2017-12-20T19:34:00.587Z,99031.59
2017-12-20T19:36:28.561Z,99024.66
2017-12-20T19:38:56.427Z,99026.94
2017-12-20T19:41:24.247Z,99025.73
2017-12-20T19:43:52.153Z,99020.95
2017-12-20T19:46:19.916Z,99031.55
2017-12-20T19:48:47.747Z,99036.30
2017-12-20T19:51:15.679Z,99039.70
2017-12-20T19:53:43.925Z,99039.70
2017-12-20T19:56:11.902Z,99051.02
2017-12-20T19:58:39.937Z,99053.91
2017-12-20T20:01:07.973Z,99046.41
2017-12-20T20:03:35.903Z,99045.12
2017-12-20T20:06:04.383Z,99035.91
2017-12-20T20:08:32.454Z,99030.78
2017-12-20T20:11:00.630Z,99030.75
2017-12-20T20:13:28.392Z,99030.80
2017-12-20T20:15:56.565Z,99033.28
2017-12-20T20:18:24.126Z,99035.02
2017-12-20T20:20:52.065Z,99040.06
2017-12-20T20:23:19.652Z,99043.88
2017-12-20T20:25:47.414Z,99047.22
2017-12-20T20:28:15.089Z,99040.55
2017-12-20T20:30:43.139Z,99043.45
2017-12-20T20:33:11.741Z,99046.81
2017-12-20T20:35:39.910Z,99040.47
2017-12-20T20:38:08.195Z,99050.48
2017-12-20T20:40:35.954Z,99053.95
2017-12-20T20:43:03.915Z,99049.79
2017-12-20T20:45:31.576Z,99045.23
2017-12-20T20:47:59.356Z,99036.71
2017-12-20T20:50:27.796Z,99033.75
2017-12-20T20:52:57.334Z,99026.09
2017-12-20T20:55:25.396Z,99026.67
2017-12-20T20:57:55.016Z,99026.63
2017-12-20T21:00:23.193Z,99025.97
2017-12-20T21:02:51.839Z,99037.09
2017-12-20T21:05:20.741Z,99042.12
2017-12-20T21:07:48.619Z,99038.00
2017-12-20T21:10:23.677Z,99043.05
2017-12-20T21:12:51.964Z,99039.26
2017-12-20T21:15:19.796Z,99036.70
2017-12-20T21:17:47.970Z,99040.03
2017-12-20T21:20:15.836Z,99035.02
2017-12-20T21:22:43.614Z,99038.83
2017-12-20T21:25:12.084Z,99031.13
2017-12-20T21:27:40.561Z,99034.36
2017-12-20T21:30:08.736Z,99030.28
2017-12-20T21:32:37.144Z,99024.69
2017-12-20T21:35:04.876Z,99020.90
2017-12-20T21:37:33.357Z,99016.81
2017-12-20T21:40:01.730Z,99017.67
2017-12-20T21:42:30.082Z,99028.58
2017-12-20T21:44:58.083Z,99025.09
2017-12-20T21:47:26.460Z,99024.42
2017-12-20T21:49:54.445Z,99026.59
2017-12-20T21:52:22.279Z,99026.17
2017-12-20T21:54:50.566Z,99021.98
2017-12-20T21:57:18.538Z,99032.59
2017-12-20T21:59:46.329Z,99039.20
2017-12-20T22:02:14.203Z,99043.59
2017-12-20T22:04:42.072Z,99048.55
2017-12-20T22:07:09.819Z,99039.77
2017-12-20T22:09:37.547Z,99036.42
2017-12-20T22:12:05.057Z,99037.52
2017-12-20T22:14:32.582Z,99039.02
2017-12-20T22:17:01.165Z,99042.81
2017-12-20T22:19:28.827Z,99049.36
2017-12-20T22:21:56.398Z,99049.42
2017-12-20T22:24:24.660Z,99053.41
2017-12-20T22:26:52.169Z,99052.80
2017-12-20T22:29:20.087Z,99051.61
2017-12-20T22:31:48.063Z,99056.28
2017-12-20T22:34:16.490Z,99052.56
2017-12-20T22:36:45.118Z,99048.25
2017-12-20T22:39:12.882Z,99061.77
2017-12-20T22:41:40.385Z,99058.83
2017-12-20T22:44:08.545Z,99065.10
2017-12-20T22:49:04.097Z,99064.88
2017-12-20T22:51:31.605Z,99065.00
2017-12-20T22:53:59.140Z,99063.26
2017-12-20T22:56:26.658Z,99065.50
2017-12-20T22:58:54.218Z,99062.81
2017-12-20T23:01:21.857Z,99064.19
2017-12-20T23:03:49.446Z,99065.39
2017-12-20T23:06:17.057Z,99071.30
2017-12-20T23:08:45.450Z,99073.96
2017-12-20T23:11:12.995Z,99078.29
2017-12-20T23:13:40.501Z,99078.34
2017-12-20T23:16:09.034Z,99072.25
2017-12-20T23:18:36.536Z,99073.02
2017-12-20T23:21:04.040Z,99071.97
2017-12-20T23:23:31.608Z,99077.41
2017-12-20T23:25:59.118Z,99073.23
2017-12-20T23:28:26.625Z,99057.58
2017-12-20T23:30:55.019Z,99051.36
2017-12-20T23:33:22.562Z,99057.59
2017-12-20T23:35:50.069Z,99051.13
2017-12-20T23:38:18.270Z,99056.95
2017-12-20T23:40:45.781Z,99049.76
2017-12-20T23:43:13.658Z,99051.01
2017-12-20T23:45:42.071Z,99047.64
2017-12-20T23:48:09.574Z,99048.05
2017-12-20T23:50:37.087Z,99044.94
2017-12-20T23:53:04.888Z,99045.95
2017-12-20T23:55:32.401Z,99047.19
2017-12-20T23:57:59.909Z,99042.08
